»·PEaware :: N669SP KCMA-KSNA

N669SP :: KCMA-KSNA

FLIGHT INFORMATION

Flight Status: Arrived
Operator: Privately registered:
United States
More flights under this callsign
Pilot: Michael B. (27902)
Aircraft: CESSNA 172 SKYHAWK
(C172)
More flights by this aircraft type
Origin: KCMA Camarillo
United States
Destination: KSNA John Wayne-Orange Co
United States
More flights between these airports :: More routes between these airports
Route: +
File this flight plan on PilotEdge
Remarks:
Altitude:
(Current/Filed)
5,500ft
Speed:
(Current/Filed)
110kts
Departed: 13-Feb-20 12:38 PM
Arrived: 13-Feb-20 01:24 PM
Distance/Time
Traveled:
69nm/0:46
Distance/Time
To Go:
Arrived

Flight Plot

Page will automatically refresh every two minutes.


Map Options




Map Legend


Flown Route
Filed Route
Departure Airport
Arrival Airport
Navaid (VOR, NDB)
Fix

Horizontal Profiles

Position Reports

Time Latitude Longitude Heading Altitude Ground
Speed
13-Feb-20 12:24 34.210434 -119.083420 90 76ft 0kts
13-Feb-20 12:25 34.210434 -119.083420 90 76ft 0kts
13-Feb-20 12:26 34.210434 -119.083420 90 76ft 0kts
13-Feb-20 12:27 34.210434 -119.083420 90 76ft 0kts
13-Feb-20 12:28 34.210434 -119.083420 90 76ft 0kts
13-Feb-20 12:30 34.210434 -119.083420 90 76ft 0kts
13-Feb-20 12:31 34.210434 -119.083420 90 76ft 0kts
13-Feb-20 12:32 34.210434 -119.083420 90 76ft 0kts
13-Feb-20 12:33 34.210434 -119.083420 90 76ft 0kts
13-Feb-20 12:34 34.210434 -119.083420 90 76ft 0kts
13-Feb-20 12:35 34.210918 -119.083607 272 75ft 6kts
13-Feb-20 12:36 34.212790 -119.084630 357 76ft 0kts
13-Feb-20 12:37 34.212859 -119.084632 358 76ft 3kts
13-Feb-20 12:38 34.213791 -119.092490 269 175ft 76kts
13-Feb-20 12:39 34.213601 -119.116659 280 1107ft 81kts
13-Feb-20 12:40 34.234620 -119.114254 91 1640ft 105kts
13-Feb-20 12:41 34.231336 -119.084337 112 2492ft 75kts
13-Feb-20 12:42 34.227506 -119.062822 114 3071ft 63kts
13-Feb-20 12:43 34.220611 -119.033530 113 3525ft 103kts
13-Feb-20 12:44 34.212701 -119.000404 112 4317ft 101kts
13-Feb-20 12:45 34.205474 -118.968355 114 5109ft 94kts
13-Feb-20 12:46 34.198328 -118.934384 110 5511ft 120kts
13-Feb-20 12:46 34.193544 -118.900640 105 5508ft 121kts
13-Feb-20 12:48 34.187359 -118.852576 105 5508ft 121kts
13-Feb-20 12:49 34.182149 -118.811664 105 5508ft 121kts
13-Feb-20 12:49 34.177870 -118.777774 105 5508ft 121kts
13-Feb-20 12:50 34.172650 -118.737087 105 5492ft 122kts
13-Feb-20 12:52 34.166866 -118.689898 102 5487ft 117kts
13-Feb-20 12:52 34.163236 -118.658390 103 5490ft 112kts
13-Feb-20 12:53 34.158680 -118.620994 103 5490ft 112kts
13-Feb-20 12:54 34.153866 -118.583228 103 5491ft 114kts
13-Feb-20 12:55 34.148924 -118.545374 102 5496ft 114kts
13-Feb-20 12:56 34.126552 -118.524920 164 5501ft 108kts
13-Feb-20 12:57 34.097236 -118.511338 165 5502ft 115kts
13-Feb-20 12:58 34.067219 -118.497550 165 5500ft 114kts
13-Feb-20 12:59 34.036688 -118.483445 163 5502ft 118kts
13-Feb-20 13:00 34.005899 -118.468602 163 5501ft 119kts
13-Feb-20 13:01 33.974943 -118.453620 163 5501ft 118kts
13-Feb-20 13:02 33.944219 -118.438623 163 5500ft 117kts
13-Feb-20 13:03 33.916161 -118.418327 139 5500ft 120kts
13-Feb-20 13:04 33.892915 -118.389792 142 5486ft 118kts
13-Feb-20 13:05 33.869432 -118.363006 144 5474ft 114kts
13-Feb-20 13:06 33.846074 -118.337506 144 5472ft 113kts
13-Feb-20 13:07 33.822229 -118.311237 144 5472ft 114kts
13-Feb-20 13:08 33.798656 -118.285205 144 5472ft 114kts
13-Feb-20 13:09 33.774727 -118.258707 144 5472ft 114kts
13-Feb-20 13:10 33.755516 -118.227849 113 5463ft 118kts
13-Feb-20 13:11 33.747323 -118.189521 80 5464ft 123kts
13-Feb-20 13:12 33.746453 -118.149623 100 5261ft 120kts
13-Feb-20 13:13 33.743811 -118.109313 103 4749ft 119kts
13-Feb-20 13:14 33.738592 -118.069822 108 4047ft 118kts
13-Feb-20 13:15 33.733321 -118.029823 100 3338ft 120kts
13-Feb-20 13:16 33.730500 -117.990628 100 2818ft 113kts
13-Feb-20 13:17 33.725669 -117.951727 104 2124ft 119kts
13-Feb-20 13:18 33.708961 -117.922748 134 1414ft 101kts
13-Feb-20 13:19 33.692235 -117.896832 121 1090ft 95kts
13-Feb-20 13:20 33.705805 -117.872343 51 1040ft 92kts
13-Feb-20 13:21 33.695991 -117.855933 203 521ft 76kts
13-Feb-20 13:22 33.680042 -117.866087 208 65ft 58kts
13-Feb-20 13:23 33.674161 -117.870678 312 60ft 11kts
13-Feb-20 13:24 33.674833 -117.871829 25 60ft 11kts

Navigation Log

Ident Type
Flight plan parsing failed, navigation log unavailable